createdAt,value
2023-02-13T00:00:20.201Z,10.75
2023-02-13T00:02:47.176Z,8.88
2023-02-13T00:05:13.748Z,9.63
2023-02-13T00:07:40.288Z,9.93
2023-02-13T00:10:08.076Z,9.57
2023-02-13T00:12:34.617Z,9.90
2023-02-13T00:15:01.306Z,9.23
2023-02-13T00:17:28.035Z,9.98
2023-02-13T00:19:54.478Z,9.70
2023-02-13T00:22:20.957Z,9.38
2023-02-13T00:24:47.374Z,8.98
2023-02-13T00:27:13.902Z,9.07
2023-02-13T00:29:40.374Z,8.90
2023-02-13T00:32:07.178Z,9.77
2023-02-13T00:34:33.745Z,9.13
2023-02-13T00:37:02.976Z,8.23
2023-02-13T00:39:29.785Z,9.23
2023-02-13T00:41:56.193Z,8.90
2023-02-13T00:44:22.601Z,9.07
2023-02-13T00:46:49.092Z,8.27
2023-02-13T00:49:16.776Z,9.05
2023-02-13T00:51:43.182Z,8.27
2023-02-13T00:54:09.581Z,8.65
2023-02-13T00:56:36.556Z,8.75
2023-02-13T00:59:03.353Z,8.05
2023-02-13T01:01:29.946Z,7.80
2023-02-13T01:03:56.648Z,8.10
2023-02-13T01:06:23.118Z,8.35
2023-02-13T01:08:49.534Z,9.13
2023-02-13T01:11:16.033Z,8.57
2023-02-13T01:13:43.887Z,8.73
2023-02-13T01:16:11.090Z,9.35
2023-02-13T01:18:38.628Z,8.25
2023-02-13T01:21:07.777Z,7.80
2023-02-13T01:23:37.744Z,9.50
2023-02-13T01:26:05.863Z,8.85
2023-02-13T01:28:32.527Z,8.18
2023-02-13T01:30:59.667Z,9.00
2023-02-13T01:33:28.370Z,9.23
2023-02-13T01:35:54.915Z,9.20
2023-02-13T01:38:21.863Z,8.05
2023-02-13T01:40:50.798Z,8.48
2023-02-13T01:43:17.875Z,7.90
2023-02-13T01:45:47.211Z,8.70
2023-02-13T01:48:17.749Z,9.25
2023-02-13T01:50:51.767Z,9.45
2023-02-13T01:53:26.629Z,9.52
2023-02-13T01:58:26.929Z,8.32
2023-02-13T02:00:53.451Z,8.38
2023-02-13T02:03:37.637Z,8.18
2023-02-13T02:06:14.351Z,8.65
2023-02-13T02:08:40.940Z,8.70
2023-02-13T02:11:16.240Z,8.93
2023-02-13T02:13:44.481Z,8.82
2023-02-13T02:16:11.052Z,9.98
2023-02-13T02:18:37.551Z,8.40
2023-02-13T02:21:10.221Z,7.88
2023-02-13T02:23:45.781Z,8.80
2023-02-13T02:26:24.394Z,9.60
2023-02-13T02:28:56.928Z,9.57
2023-02-13T02:31:55.015Z,9.02
2023-02-13T02:34:45.333Z,9.23
2023-02-13T02:37:29.472Z,7.82
2023-02-13T02:40:14.086Z,9.00
2023-02-13T02:43:08.644Z,8.38
2023-02-13T02:45:50.686Z,8.50
2023-02-13T02:48:56.335Z,8.80
2023-02-13T02:51:31.986Z,9.10
2023-02-13T02:54:32.479Z,8.05
2023-02-13T02:57:10.527Z,8.85
2023-02-13T02:59:58.488Z,8.55
2023-02-13T03:02:44.231Z,9.48
2023-02-13T03:05:45.090Z,8.68
2023-02-13T03:08:12.437Z,8.60
2023-02-13T03:10:58.042Z,8.77
2023-02-13T03:13:36.618Z,8.73
2023-02-13T03:16:22.338Z,10.52
2023-02-13T03:19:15.586Z,9.27
2023-02-13T03:22:09.494Z,8.98
2023-02-13T03:25:06.598Z,9.23
2023-02-13T03:27:51.726Z,9.18
2023-02-13T03:30:30.454Z,9.13
2023-02-13T03:33:21.062Z,9.02
2023-02-13T03:36:34.071Z,8.05
2023-02-13T03:39:18.932Z,9.45
2023-02-13T03:41:58.252Z,8.90
2023-02-13T03:44:27.756Z,8.68
2023-02-13T03:46:58.327Z,9.13
2023-02-13T03:49:54.423Z,10.07
2023-02-13T03:52:24.656Z,9.07
2023-02-13T03:55:20.064Z,9.68
2023-02-13T03:58:07.060Z,8.70
2023-02-13T04:00:41.396Z,8.27
2023-02-13T04:03:20.192Z,9.75
2023-02-13T04:05:59.354Z,9.38
2023-02-13T04:08:25.830Z,10.05
2023-02-13T04:11:02.661Z,9.30
2023-02-13T04:13:43.433Z,9.45
2023-02-13T04:18:39.232Z,9.15
2023-02-13T04:21:07.641Z,10.32
2023-02-13T04:23:36.747Z,8.23
2023-02-13T04:26:09.032Z,8.55
2023-02-13T04:28:35.612Z,8.23
2023-02-13T04:31:02.464Z,9.73
2023-02-13T04:33:29.078Z,9.55
2023-02-13T04:35:56.790Z,8.27
2023-02-13T04:38:23.290Z,9.75
2023-02-13T04:40:49.759Z,8.63
2023-02-13T04:43:16.206Z,8.88
2023-02-13T04:45:42.664Z,9.23
2023-02-13T04:48:09.738Z,8.48
2023-02-13T04:50:36.146Z,8.50
2023-02-13T04:53:02.589Z,8.50
2023-02-13T04:55:30.209Z,8.93
2023-02-13T04:57:57.267Z,9.18
2023-02-13T05:00:26.132Z,8.65
2023-02-13T05:02:53.558Z,9.27
2023-02-13T05:05:21.358Z,9.05
2023-02-13T05:07:48.122Z,9.02
2023-02-13T05:10:14.597Z,9.27
2023-02-13T05:12:41.314Z,8.27
2023-02-13T05:15:08.583Z,10.35
2023-02-13T05:17:35.051Z,8.40
2023-02-13T05:20:01.515Z,8.25
2023-02-13T05:22:46.692Z,9.48
2023-02-13T05:25:13.156Z,9.77
2023-02-13T05:27:39.627Z,10.07
2023-02-13T05:30:06.667Z,8.82
2023-02-13T05:32:33.203Z,9.43
2023-02-13T05:34:59.604Z,9.95
2023-02-13T05:37:26.186Z,10.18
2023-02-13T05:39:52.647Z,10.45
2023-02-13T05:42:19.170Z,9.63
2023-02-13T05:44:45.580Z,9.25
2023-02-13T05:47:12.227Z,8.82
2023-02-13T05:49:38.705Z,9.75
2023-02-13T05:52:05.191Z,9.43
2023-02-13T05:54:31.738Z,9.85
2023-02-13T05:56:58.248Z,9.45
2023-02-13T05:59:24.681Z,8.98
2023-02-13T06:01:51.166Z,9.88
2023-02-13T06:04:17.653Z,9.13
2023-02-13T06:06:45.479Z,10.32
2023-02-13T06:09:12.190Z,9.77
2023-02-13T06:11:38.654Z,9.10
2023-02-13T06:14:05.151Z,9.52
2023-02-13T06:16:31.612Z,10.82
2023-02-13T06:18:58.359Z,9.80
2023-02-13T06:21:24.831Z,9.30
2023-02-13T06:23:51.297Z,10.20
2023-02-13T06:26:18.676Z,9.80
2023-02-13T06:28:45.221Z,9.77
2023-02-13T06:31:11.862Z,10.32
2023-02-13T06:33:38.456Z,11.15
2023-02-13T06:36:05.161Z,9.77
2023-02-13T06:38:32.105Z,9.77
2023-02-13T06:41:01.685Z,9.50
2023-02-13T06:43:28.752Z,9.13
2023-02-13T06:45:55.490Z,9.98
2023-02-13T06:48:22.218Z,10.82
2023-02-13T06:50:48.779Z,10.52
2023-02-13T06:53:15.347Z,10.18
2023-02-13T06:55:41.863Z,10.48
2023-02-13T06:58:08.362Z,10.32
2023-02-13T07:00:35.460Z,10.88
2023-02-13T07:03:04.039Z,10.60
2023-02-13T07:05:30.853Z,10.25
2023-02-13T07:07:57.415Z,9.55
2023-02-13T07:10:24.289Z,11.07
2023-02-13T07:13:03.670Z,10.63
2023-02-13T07:15:33.096Z,11.18
2023-02-13T07:18:00.419Z,10.77
2023-02-13T07:20:27.479Z,11.32
2023-02-13T07:22:58.855Z,10.75
2023-02-13T07:25:25.429Z,11.27
2023-02-13T07:27:51.870Z,10.90
2023-02-13T07:30:18.689Z,11.35
2023-02-13T07:32:45.149Z,11.75
2023-02-13T07:35:11.634Z,11.18
2023-02-13T07:37:38.050Z,10.45
2023-02-13T07:40:06.506Z,11.63
2023-02-13T07:42:34.723Z,10.68
2023-02-13T07:45:01.446Z,10.98
2023-02-13T07:47:27.928Z,11.98
2023-02-13T07:49:54.987Z,11.90
2023-02-13T07:52:21.547Z,11.55
2023-02-13T07:54:48.232Z,11.60
2023-02-13T07:57:16.062Z,11.85
2023-02-13T07:59:42.869Z,12.52
2023-02-13T08:02:14.341Z,12.02
2023-02-13T08:04:41.393Z,11.13
2023-02-13T08:07:07.856Z,11.25
2023-02-13T08:09:52.632Z,12.60
2023-02-13T08:12:19.109Z,11.93
2023-02-13T08:14:45.562Z,11.60
2023-02-13T08:17:12.233Z,12.05
2023-02-13T08:19:38.934Z,12.02
2023-02-13T08:22:05.500Z,12.73
2023-02-13T08:24:33.016Z,12.00
2023-02-13T08:26:59.532Z,10.75
2023-02-13T08:29:25.988Z,12.07
2023-02-13T08:31:52.564Z,11.95
2023-02-13T08:34:19.267Z,12.38
2023-02-13T08:36:45.729Z,13.18
2023-02-13T08:39:12.321Z,11.38
2023-02-13T08:41:38.833Z,11.70
2023-02-13T08:44:05.479Z,12.95
2023-02-13T08:46:32.071Z,11.40
2023-02-13T08:48:58.611Z,12.20
2023-02-13T08:51:25.117Z,11.35
2023-02-13T08:53:51.694Z,12.40
2023-02-13T08:56:18.418Z,11.15
2023-02-13T08:58:47.796Z,12.00
2023-02-13T09:01:14.332Z,11.98
2023-02-13T09:03:40.814Z,11.15
2023-02-13T09:06:07.546Z,12.00
2023-02-13T09:08:37.083Z,10.90
2023-02-13T09:11:05.639Z,11.32
2023-02-13T09:13:34.395Z,11.10
2023-02-13T09:16:02.926Z,11.20
2023-02-13T09:18:29.474Z,11.45
2023-02-13T09:21:08.151Z,11.07
2023-02-13T09:23:36.647Z,11.43
2023-02-13T09:26:06.045Z,12.18
2023-02-13T09:28:34.764Z,11.38
2023-02-13T09:31:09.456Z,11.82
2023-02-13T09:33:36.396Z,11.95
2023-02-13T09:36:07.457Z,11.50
2023-02-13T09:38:35.058Z,11.13
2023-02-13T09:41:14.084Z,11.13
2023-02-13T09:43:45.032Z,11.32
2023-02-13T09:46:17.318Z,10.27
2023-02-13T09:48:47.159Z,10.82
2023-02-13T09:51:17.345Z,11.80
2023-02-13T09:53:51.191Z,11.55
2023-02-13T09:56:26.793Z,12.13
2023-02-13T09:59:06.415Z,12.75
2023-02-13T10:01:44.057Z,11.52
2023-02-13T10:04:49.541Z,11.77
2023-02-13T10:07:27.147Z,11.63
2023-02-13T10:10:19.466Z,11.90
2023-02-13T10:15:41.925Z,11.27
2023-02-13T10:18:16.826Z,11.07
2023-02-13T10:20:53.175Z,12.23
2023-02-13T10:23:43.568Z,11.82
2023-02-13T10:26:21.092Z,12.60
2023-02-13T10:29:18.827Z,12.90
2023-02-13T10:31:49.688Z,11.82
2023-02-13T10:34:17.795Z,11.98
2023-02-13T10:36:46.248Z,11.25
2023-02-13T10:39:18.695Z,12.30
2023-02-13T10:42:36.543Z,12.05
2023-02-13T10:45:39.065Z,12.40
2023-02-13T10:48:20.757Z,11.93
2023-02-13T10:51:00.933Z,11.15
2023-02-13T10:53:54.675Z,11.63
2023-02-13T10:56:37.005Z,13.05
2023-02-13T10:59:22.202Z,12.73
2023-02-13T11:02:02.181Z,12.90
2023-02-13T11:04:29.477Z,13.25
2023-02-13T11:06:59.504Z,12.10
2023-02-13T11:09:26.742Z,12.00
2023-02-13T11:11:53.479Z,12.35
2023-02-13T11:14:25.614Z,12.52
2023-02-13T11:16:59.684Z,12.63
2023-02-13T11:19:34.323Z,12.70
2023-02-13T11:22:08.685Z,13.00
2023-02-13T11:27:09.362Z,13.05
2023-02-13T11:29:38.159Z,12.13
2023-02-13T11:32:22.158Z,11.85
2023-02-13T11:34:54.562Z,12.85
2023-02-13T11:37:24.861Z,11.77
2023-02-13T11:39:54.175Z,12.65
2023-02-13T11:42:33.833Z,12.85
2023-02-13T11:45:35.624Z,12.88
2023-02-13T11:48:16.446Z,13.80
2023-02-13T11:50:46.195Z,12.18
2023-02-13T11:53:25.655Z,12.32
2023-02-13T11:56:03.081Z,13.65
2023-02-13T11:58:31.240Z,13.48
2023-02-13T12:01:22.296Z,13.13
2023-02-13T12:04:16.129Z,10.68
2023-02-13T12:06:59.349Z,11.55
2023-02-13T12:09:27.304Z,10.95
2023-02-13T12:11:57.593Z,16.02
2023-02-13T12:14:31.493Z,13.05
2023-02-13T12:17:05.242Z,11.02
2023-02-13T12:19:38.232Z,10.80
2023-02-13T12:22:14.917Z,10.70
2023-02-13T12:25:01.584Z,10.05
2023-02-13T12:27:46.546Z,10.52
2023-02-13T12:30:27.908Z,10.23
2023-02-13T12:33:18.268Z,10.30
2023-02-13T12:35:50.801Z,9.98
2023-02-13T12:38:24.300Z,10.18
2023-02-13T12:41:19.959Z,11.32
2023-02-13T12:44:08.380Z,8.55
2023-02-13T12:46:47.358Z,10.32
2023-02-13T12:49:43.482Z,10.70
2023-02-13T12:52:33.043Z,10.30
2023-02-13T12:55:38.654Z,9.10
2023-02-13T12:58:40.191Z,11.00
2023-02-13T13:01:20.299Z,11.18
2023-02-13T13:04:20.801Z,12.07
2023-02-13T13:06:53.467Z,9.50
2023-02-13T13:09:50.051Z,10.30
2023-02-13T13:12:49.812Z,9.15
2023-02-13T13:16:17.195Z,9.73
2023-02-13T13:18:57.222Z,10.07
2023-02-13T13:21:46.609Z,10.95
2023-02-13T13:24:31.818Z,9.85
2023-02-13T13:27:00.565Z,8.85
2023-02-13T13:29:44.258Z,9.40
2023-02-13T13:32:21.095Z,9.90
2023-02-13T13:34:47.734Z,11.75
2023-02-13T13:37:23.245Z,8.93
2023-02-13T13:40:05.362Z,10.70
2023-02-13T13:42:42.142Z,10.50
2023-02-13T13:45:34.707Z,10.25
2023-02-13T13:48:40.552Z,8.90
2023-02-13T13:51:09.727Z,9.45
2023-02-13T13:53:38.344Z,9.65
2023-02-13T13:56:06.605Z,8.52
2023-02-13T13:58:46.668Z,9.35
2023-02-13T14:01:21.098Z,9.20
2023-02-13T14:04:06.265Z,9.75
2023-02-13T14:06:44.698Z,10.02
2023-02-13T14:09:39.090Z,9.68
2023-02-13T14:12:45.350Z,9.35
2023-02-13T14:15:34.942Z,9.43
2023-02-13T14:18:11.734Z,8.88
2023-02-13T14:20:49.638Z,10.20
2023-02-13T14:23:50.604Z,11.43
2023-02-13T14:26:18.458Z,12.02
2023-02-13T14:28:50.810Z,9.98
2023-02-13T14:31:27.413Z,10.88
2023-02-13T14:34:07.456Z,9.38
2023-02-13T14:36:39.956Z,9.85
2023-02-13T14:39:20.034Z,9.98
2023-02-13T14:41:55.479Z,12.80
2023-02-13T14:44:54.494Z,8.77
2023-02-13T14:47:56.621Z,9.18
2023-02-13T14:50:31.674Z,9.48
2023-02-13T14:53:05.434Z,8.63
2023-02-13T14:55:36.207Z,9.30
2023-02-13T14:58:15.951Z,9.80
2023-02-13T15:01:00.879Z,9.85
2023-02-13T15:04:05.386Z,9.07
2023-02-13T15:06:38.593Z,9.35
2023-02-13T15:09:18.327Z,9.50
2023-02-13T15:11:45.036Z,8.95
2023-02-13T15:14:35.450Z,8.70
2023-02-13T15:17:21.820Z,9.02
2023-02-13T15:19:51.763Z,9.90
2023-02-13T15:22:21.833Z,9.63
2023-02-13T15:24:50.059Z,8.70
2023-02-13T15:27:31.676Z,9.43
2023-02-13T15:30:03.423Z,9.55
2023-02-13T15:32:39.001Z,9.20
2023-02-13T15:35:30.978Z,7.93
2023-02-13T15:37:59.008Z,9.00
2023-02-13T15:40:36.496Z,10.07
2023-02-13T15:43:04.053Z,9.85
2023-02-13T15:45:30.686Z,8.75
2023-02-13T15:47:58.030Z,9.18
2023-02-13T15:50:34.833Z,9.38
2023-02-13T15:53:05.588Z,9.82
2023-02-13T15:55:36.171Z,9.48
2023-02-13T15:58:03.465Z,9.65
2023-02-13T16:00:39.391Z,9.32
2023-02-13T16:03:08.680Z,9.90
2023-02-13T16:05:41.442Z,9.25
2023-02-13T16:08:35.865Z,10.32
2023-02-13T16:11:24.558Z,9.63
2023-02-13T16:14:08.168Z,10.05
2023-02-13T16:16:48.808Z,9.20
2023-02-13T16:19:35.401Z,8.98
2023-02-13T16:22:07.999Z,9.73
2023-02-13T16:24:36.440Z,9.18
2023-02-13T16:27:05.166Z,9.65
2023-02-13T16:29:31.844Z,9.82
2023-02-13T16:32:07.722Z,10.02
2023-02-13T16:34:34.356Z,10.07
2023-02-13T16:37:00.882Z,9.90
2023-02-13T16:39:30.235Z,10.13
2023-02-13T16:42:00.984Z,9.63
2023-02-13T16:44:30.246Z,9.13
2023-02-13T16:47:01.387Z,8.68
2023-02-13T16:49:31.049Z,9.40
2023-02-13T16:52:10.702Z,9.13
2023-02-13T16:54:51.099Z,9.30
2023-02-13T16:57:22.011Z,9.68
2023-02-13T16:59:48.717Z,9.38
2023-02-13T17:02:23.164Z,9.73
2023-02-13T17:04:51.226Z,9.75
2023-02-13T17:07:29.789Z,9.05
2023-02-13T17:10:08.663Z,9.27
2023-02-13T17:12:38.088Z,9.85
2023-02-13T17:15:07.391Z,9.25
2023-02-13T17:17:33.977Z,9.57
2023-02-13T17:20:00.835Z,9.80
2023-02-13T17:22:33.211Z,10.43
2023-02-13T17:25:01.896Z,10.57
2023-02-13T17:27:28.439Z,12.32
2023-02-13T17:29:55.011Z,15.13
2023-02-13T17:32:24.757Z,13.95
2023-02-13T17:34:51.313Z,11.95
2023-02-13T17:37:23.776Z,14.15
2023-02-13T17:39:51.036Z,12.40
2023-02-13T17:42:25.020Z,10.57
2023-02-13T17:44:55.767Z,11.52
2023-02-13T17:47:23.259Z,9.73
2023-02-13T17:49:49.928Z,10.13
2023-02-13T17:52:22.707Z,11.55
2023-02-13T17:54:49.201Z,10.00
2023-02-13T17:57:17.806Z,9.38
2023-02-13T17:59:46.119Z,10.50
2023-02-13T18:02:15.855Z,10.60
2023-02-13T18:04:42.542Z,10.90
2023-02-13T18:07:10.931Z,9.93
2023-02-13T18:09:37.819Z,10.80
2023-02-13T18:12:05.932Z,10.60
2023-02-13T18:14:33.969Z,9.88
2023-02-13T18:17:00.515Z,10.93
2023-02-13T18:19:27.899Z,11.38
2023-02-13T18:21:54.406Z,12.00
2023-02-13T18:24:20.956Z,12.57
2023-02-13T18:26:47.419Z,12.65
2023-02-13T18:29:13.966Z,11.52
2023-02-13T18:31:40.664Z,11.10
2023-02-13T18:34:07.587Z,12.45
2023-02-13T18:36:34.085Z,13.02
2023-02-13T18:39:00.606Z,11.70
2023-02-13T18:41:27.076Z,10.82
2023-02-13T18:43:57.011Z,11.68
2023-02-13T18:46:24.017Z,11.70
2023-02-13T18:48:50.433Z,12.48
2023-02-13T18:51:16.942Z,11.50
2023-02-13T18:53:43.934Z,11.93
2023-02-13T18:56:11.906Z,12.38
2023-02-13T18:58:38.691Z,12.40
2023-02-13T19:01:09.381Z,12.13
2023-02-13T19:03:37.286Z,11.52
2023-02-13T19:06:09.669Z,12.90
2023-02-13T19:08:36.551Z,13.60
2023-02-13T19:11:08.711Z,13.25
2023-02-13T19:13:35.990Z,13.98
2023-02-13T19:16:15.348Z,14.73
2023-02-13T19:18:47.248Z,14.50
2023-02-13T19:21:14.566Z,13.50
2023-02-13T19:23:41.400Z,14.55
2023-02-13T19:26:09.833Z,15.27
2023-02-13T19:28:37.253Z,14.80
2023-02-13T19:31:10.192Z,14.75
2023-02-13T19:33:37.368Z,13.93
2023-02-13T19:36:06.574Z,15.40
2023-02-13T19:38:33.117Z,15.07
2023-02-13T19:41:04.455Z,13.82
2023-02-13T19:43:30.975Z,13.70
2023-02-13T19:46:01.492Z,15.20
2023-02-13T19:48:27.989Z,14.15
2023-02-13T19:50:54.457Z,14.40
2023-02-13T19:53:20.901Z,15.25
2023-02-13T19:55:47.417Z,13.07
2023-02-13T19:58:14.045Z,14.55
2023-02-13T20:00:41.008Z,14.18
2023-02-13T20:03:07.602Z,13.75
2023-02-13T20:05:40.209Z,14.75
2023-02-13T20:08:06.752Z,15.73
2023-02-13T20:10:33.281Z,15.40
2023-02-13T20:13:00.036Z,14.70
2023-02-13T20:15:27.512Z,14.05
2023-02-13T20:17:54.014Z,13.13
2023-02-13T20:20:20.658Z,13.75
2023-02-13T20:22:48.596Z,13.50
2023-02-13T20:25:17.922Z,13.70
2023-02-13T20:27:45.518Z,13.10
2023-02-13T20:30:14.871Z,13.23
2023-02-13T20:32:41.690Z,11.88
2023-02-13T20:35:08.598Z,12.98
2023-02-13T20:37:35.190Z,13.07
2023-02-13T20:40:02.101Z,12.95
2023-02-13T20:42:28.778Z,13.20
2023-02-13T20:44:55.296Z,12.25
2023-02-13T20:47:21.767Z,13.90
2023-02-13T20:49:48.190Z,12.95
2023-02-13T20:52:14.689Z,13.23
2023-02-13T20:54:41.259Z,13.10
2023-02-13T20:57:07.761Z,13.27
2023-02-13T20:59:34.270Z,12.98
2023-02-13T21:02:00.805Z,15.07
2023-02-13T21:04:29.069Z,13.38
2023-02-13T21:06:55.765Z,13.50
2023-02-13T21:09:22.299Z,13.85
2023-02-13T21:11:48.824Z,14.38
2023-02-13T21:14:15.293Z,13.25
2023-02-13T21:16:42.864Z,13.82
2023-02-13T21:19:16.377Z,13.65
2023-02-13T21:21:44.247Z,12.95
2023-02-13T21:24:15.313Z,13.43
2023-02-13T21:26:43.022Z,13.30
2023-02-13T21:29:09.821Z,12.90
2023-02-13T21:31:51.103Z,13.20
2023-02-13T21:34:18.076Z,13.98
2023-02-13T21:36:45.042Z,14.13
2023-02-13T21:39:12.787Z,13.82
2023-02-13T21:41:40.414Z,13.98
2023-02-13T21:44:06.947Z,13.95
2023-02-13T21:46:34.038Z,15.68
2023-02-13T21:49:03.155Z,14.00
2023-02-13T21:51:31.579Z,13.98
2023-02-13T21:53:58.616Z,13.68
2023-02-13T21:56:31.681Z,14.10
2023-02-13T21:58:58.825Z,12.88
2023-02-13T22:01:34.283Z,14.32
2023-02-13T22:04:02.999Z,13.05
2023-02-13T22:06:31.371Z,13.50
2023-02-13T22:09:04.416Z,12.75
2023-02-13T22:11:31.110Z,13.25
2023-02-13T22:14:02.811Z,13.18
2023-02-13T22:16:30.885Z,12.88
2023-02-13T22:18:57.737Z,12.90
2023-02-13T22:21:26.574Z,13.57
2023-02-13T22:23:53.300Z,13.20
2023-02-13T22:26:25.943Z,12.70
2023-02-13T22:28:53.587Z,12.73
2023-02-13T22:31:24.847Z,13.20
2023-02-13T22:34:02.956Z,13.88
2023-02-13T22:36:30.879Z,13.38
2023-02-13T22:38:58.131Z,12.75
2023-02-13T22:41:25.755Z,13.20
2023-02-13T22:43:53.048Z,13.68
2023-02-13T22:46:26.022Z,13.20
2023-02-13T22:48:53.310Z,13.93
2023-02-13T22:51:23.055Z,12.27
2023-02-13T22:53:49.676Z,12.98
2023-02-13T22:56:16.281Z,13.77
2023-02-13T22:58:42.694Z,14.32
2023-02-13T23:01:11.867Z,12.80
2023-02-13T23:06:05.741Z,12.77
2023-02-13T23:08:32.236Z,13.77
2023-02-13T23:11:17.363Z,14.30
2023-02-13T23:13:44.565Z,13.65
2023-02-13T23:16:14.652Z,13.48
2023-02-13T23:18:41.459Z,13.45
2023-02-13T23:21:08.292Z,12.95
2023-02-13T23:23:35.893Z,13.48
2023-02-13T23:26:06.939Z,12.52
2023-02-13T23:28:33.893Z,12.60
2023-02-13T23:31:01.500Z,13.13
2023-02-13T23:33:29.507Z,12.75
2023-02-13T23:35:56.266Z,13.43
2023-02-13T23:38:23.596Z,12.60
2023-02-13T23:40:50.238Z,13.38
2023-02-13T23:43:16.838Z,12.00
2023-02-13T23:45:43.290Z,12.77
2023-02-13T23:48:12.778Z,12.15
2023-02-13T23:50:40.229Z,12.75
2023-02-13T23:53:06.837Z,13.07
2023-02-13T23:55:33.229Z,13.80
2023-02-13T23:58:00.491Z,13.07
